Time;durP1;ratioP1;P1;durP2;ratioP2;P2;SDS_P1;SDS_P2;PMS_P1;PMS_P2;Temp;Humidity;BMP_temperature;BMP_pressure;BME280_temperature;BME280_humidity;BME280_pressure;Samples;Min_cycle;Max_cycle;Signal;HPM_P1;HPM_P2
2022/05/29 00:02:05;;;;;;;4.75;1.20;;;;;;;10.22;78.66;100058.94;4955260;29;20384;-79
2022/05/29 00:04:33;;;;;;;2.55;1.20;;;;;;;10.17;78.61;100051.06;4954134;29;20039;-77
2022/05/29 00:06:58;;;;;;;5.80;1.38;;;;;;;10.20;78.25;100059.44;4954154;28;20469;-80
2022/05/29 00:09:49;;;;;;;3.08;1.25;;;;;;;10.15;78.50;100048.69;4955786;28;20035;-79
2022/05/29 00:12:16;;;;;;;4.80;1.00;;;;;;;10.16;78.88;100055.97;4959218;28;20178;-79
2022/05/29 00:14:42;;;;;;;1.58;1.20;;;;;;;10.05;79.63;100055.69;4974043;28;20114;-78
2022/05/29 00:17:08;;;;;;;3.72;1.20;;;;;;;10.00;79.20;100053.50;4959278;29;20102;-79
2022/05/29 00:19:38;;;;;;;1.80;1.17;;;;;;;9.96;79.94;100055.75;4974024;28;20016;-77
2022/05/29 00:22:05;;;;;;;2.88;1.88;;;;;;;9.91;80.26;100054.34;4958460;29;20030;-79
2022/05/29 00:24:30;;;;;;;3.47;1.33;;;;;;;9.83;79.97;100040.94;4959007;29;20027;-78
2022/05/29 00:26:56;;;;;;;2.22;1.15;;;;;;;9.81;80.79;100038.59;4958872;29;20054;-78
2022/05/29 00:29:22;;;;;;;4.68;1.23;;;;;;;9.83;80.31;100047.41;4957498;29;20038;-78
2022/05/29 00:31:48;;;;;;;3.15;1.40;;;;;;;9.81;81.12;100052.00;4957595;28;20031;-79
2022/05/29 00:34:14;;;;;;;1.95;0.95;;;;;;;9.77;81.31;100055.00;4957645;29;20031;-80
2022/05/29 00:36:43;;;;;;;1.88;1.38;;;;;;;9.79;80.97;100048.84;4941411;29;20490;-78
2022/05/29 00:39:12;;;;;;;4.78;1.08;;;;;;;9.73;81.16;100039.38;4958065;29;20119;-78
2022/05/29 00:41:39;;;;;;;2.53;1.23;;;;;;;9.67;81.19;100044.16;4942502;29;20091;-78
2022/05/29 00:44:18;;;;;;;9.02;1.50;;;;;;;9.62;82.32;100036.28;4958735;28;20581;-79
2022/05/29 00:47:08;;;;;;;8.25;1.70;;;;;;;9.58;82.79;100038.50;4957262;28;20027;-79
2022/05/29 00:49:36;;;;;;;1.42;1.23;;;;;;;9.48;82.61;100038.53;4957036;28;20047;-78
2022/05/29 00:52:08;;;;;;;3.60;1.30;;;;;;;9.47;82.07;100042.63;4973384;28;20081;-79
2022/05/29 00:54:49;;;;;;;3.38;1.48;;;;;;;9.32;82.73;100021.84;4957488;29;20114;-78
2022/05/29 00:57:18;;;;;;;2.75;1.30;;;;;;;9.35;84.13;100037.16;4958495;28;20019;-79
2022/05/29 00:59:45;;;;;;;1.75;1.45;;;;;;;9.28;84.03;100038.25;4973711;28;20468;-79
2022/05/29 01:02:12;;;;;;;4.20;1.30;;;;;;;9.26;83.03;100034.31;4957014;29;20089;-78
2022/05/29 01:04:39;;;;;;;2.45;1.52;;;;;;;9.19;83.21;100029.75;4958237;28;20027;-80
2022/05/29 01:07:14;;;;;;;4.68;1.20;;;;;;;9.16;84.40;100042.09;4957316;29;20027;-78
2022/05/29 01:09:43;;;;;;;1.38;1.20;;;;;;;9.11;84.22;100031.34;4957315;28;20055;-79
2022/05/29 01:12:47;;;;;;;2.40;2.15;;;;;;;9.07;84.62;100036.41;4956997;28;20097;-78
2022/05/29 01:15:31;;;;;;;4.22;1.50;;;;;;;9.04;83.75;100029.63;4958067;28;20034;-79
2022/05/29 01:18:31;;;;;;;4.50;1.77;;;;;;;8.99;85.34;100032.31;4958051;28;20059;-78
2022/05/29 01:21:21;;;;;;;3.38;1.60;;;;;;;8.95;84.88;100026.78;4957656;28;20035;-79
2022/05/29 01:24:23;;;;;;;3.13;1.45;;;;;;;8.89;85.57;100030.72;4958296;28;20023;-80
2022/05/29 01:27:20;;;;;;;7.05;1.75;;;;;;;8.84;85.59;100035.00;4950119;28;20042;-78
2022/05/29 01:30:03;;;;;;;2.28;1.13;;;;;;;8.83;85.21;100024.91;4957654;28;20026;-78
2022/05/29 01:32:36;;;;;;;3.30;1.67;;;;;;;8.81;85.27;100024.59;4958040;28;20031;-79
2022/05/29 01:35:34;;;;;;;2.55;1.60;;;;;;;8.77;85.94;100031.69;4957299;28;20027;-79
2022/05/29 01:38:07;;;;;;;8.32;2.22;;;;;;;8.68;86.71;100026.81;4972625;28;20111;-79
2022/05/29 01:40:59;;;;;;;2.88;1.40;;;;;;;8.59;86.46;100027.59;4956302;28;20030;-80
2022/05/29 01:43:36;;;;;;;2.03;1.80;;;;;;;8.65;86.03;100030.59;4956026;28;20068;-80
2022/05/29 01:46:16;;;;;;;1.98;1.38;;;;;;;8.57;87.72;100029.34;4957664;28;20050;-78
2022/05/29 01:49:23;;;;;;;3.35;1.70;;;;;;;8.49;88.40;100022.38;4941356;28;20047;-78
2022/05/29 01:52:00;;;;;;;7.55;1.80;;;;;;;8.48;87.68;100026.50;4955854;28;20122;-78
2022/05/29 01:54:41;;;;;;;4.13;1.52;;;;;;;8.42;88.35;100029.16;4957325;28;20377;-78
2022/05/29 01:57:19;;;;;;;2.72;1.55;;;;;;;8.36;88.49;100016.06;4956332;28;20123;-79
2022/05/29 01:59:54;;;;;;;3.33;1.63;;;;;;;8.37;89.16;100014.81;4972183;28;20082;-78
2022/05/29 02:02:26;;;;;;;3.80;1.85;;;;;;;8.44;87.51;100014.47;4957399;28;20027;-78
2022/05/29 02:04:54;;;;;;;;;;;;;;;8.44;88.11;100018.09;4956751;28;20579;-80
2022/05/29 02:10:22;;;;;;;2.75;1.45;;;;;;;8.43;89.11;100027.13;4969870;28;20131;-79
2022/05/29 02:13:12;;;;;;;4.22;1.42;;;;;;;8.38;89.05;100013.56;4957129;28;20030;-78
2022/05/29 02:15:49;;;;;;;4.88;1.73;;;;;;;8.41;88.50;100019.06;4956500;28;20146;-81
2022/05/29 02:18:28;;;;;;;2.25;1.10;;;;;;;8.38;88.62;100017.19;4956318;28;20528;-79
2022/05/29 02:21:16;;;;;;;1.77;1.40;;;;;;;8.36;89.09;100019.69;4956606;28;20039;-79
2022/05/29 02:23:45;;;;;;;5.03;1.88;;;;;;;8.36;88.97;100021.72;4955335;28;20027;-79
2022/05/29 02:26:28;;;;;;;4.25;1.73;;;;;;;8.30;89.78;100017.94;4939823;29;20058;-78
2022/05/29 02:29:04;;;;;;;2.63;1.60;;;;;;;8.28;89.04;100007.03;4955491;28;20016;-79
2022/05/29 02:31:49;;;;;;;2.65;1.48;;;;;;;8.30;89.46;100017.94;4954849;28;20023;-77
2022/05/29 02:34:24;;;;;;;4.25;1.42;;;;;;;8.27;89.26;100022.50;4956593;28;20023;-79
2022/05/29 02:37:27;;;;;;;3.42;1.83;;;;;;;8.26;89.01;100035.09;4956708;28;20023;-78
2022/05/29 02:39:58;;;;;;;3.80;1.63;;;;;;;8.24;88.84;100031.91;4934989;29;20095;-77
2022/05/29 02:42:59;;;;;;;4.57;1.67;;;;;;;8.16;89.73;100037.13;4935265;29;20039;-79
2022/05/29 02:45:50;;;;;;;2.47;1.52;;;;;;;8.15;89.82;100044.03;4935334;29;20461;-79
2022/05/29 02:48:35;;;;;;;1.52;1.23;;;;;;;8.11;89.88;100039.78;4951919;28;20057;-79
2022/05/29 02:51:42;;;;;;;2.25;1.63;;;;;;;8.13;89.80;100042.94;4958026;28;20515;-79
2022/05/29 02:54:13;;;;;;;5.80;1.63;;;;;;;8.11;90.49;100048.28;4974502;28;20043;-79
2022/05/29 02:59:05;;;;;;;2.72;1.52;;;;;;;8.04;90.44;100037.25;5045874;22;19921;-80
2022/05/29 03:01:36;;;;;;;2.72;1.50;;;;;;;8.14;89.85;100028.28;5000106;28;20080;-79
2022/05/29 03:04:23;;;;;;;2.30;1.60;;;;;;;8.16;89.72;100039.16;5032856;28;20060;-79
2022/05/29 03:07:07;;;;;;;4.15;1.83;;;;;;;8.14;89.99;100027.50;5032950;28;20032;-79
2022/05/29 03:09:48;;;;;;;2.83;1.58;;;;;;;8.18;90.09;100030.97;5036657;28;20556;-79
2022/05/29 03:12:38;;;;;;;3.58;1.83;;;;;;;8.20;89.27;100032.06;5001035;28;20044;-80
2022/05/29 03:15:25;;;;;;;1.58;1.33;;;;;;;8.27;89.43;100039.50;5016410;28;20517;-79
2022/05/29 03:18:20;;;;;;;3.53;1.65;;;;;;;8.33;89.00;100032.00;5003136;28;20156;-79
2022/05/29 03:20:45;;;;;;;3.58;1.70;;;;;;;8.40;89.11;100023.16;5016976;28;20021;-80
2022/05/29 03:23:14;;;;;;;5.07;2.30;;;;;;;8.44;88.65;100026.63;5032677;28;20029;-78
2022/05/29 03:25:43;;;;;;;1.88;1.42;;;;;;;8.49;88.64;100037.34;5034171;28;20056;-79
2022/05/29 03:28:15;;;;;;;4.57;1.38;;;;;;;8.43;88.91;100022.22;5018021;28;20033;-79
2022/05/29 03:30:42;;;;;;;7.50;2.00;;;;;;;8.49;88.46;100028.03;5019075;28;20051;-80
2022/05/29 03:33:09;;;;;;;2.30;1.63;;;;;;;8.54;87.83;100024.56;5019275;28;20428;-79
2022/05/29 03:35:46;;;;;;;3.88;1.60;;;;;;;8.65;87.99;100030.59;5016352;28;20064;-79
2022/05/29 03:38:12;;;;;;;4.25;1.73;;;;;;;8.65;87.65;100016.38;4999368;28;20397;-79
2022/05/29 03:40:39;;;;;;;3.70;1.58;;;;;;;8.75;87.96;100032.16;4999477;28;20022;-78
2022/05/29 03:43:04;;;;;;;2.67;1.40;;;;;;;8.79;87.29;100023.47;5033786;28;20449;-78
2022/05/29 03:45:30;;;;;;;2.20;1.80;;;;;;;8.82;87.52;100019.72;5033600;28;20485;-80
2022/05/29 03:47:56;;;;;;;8.25;1.67;;;;;;;8.86;87.17;100021.13;5033686;28;20399;-80
2022/05/29 03:50:23;;;;;;;7.03;1.92;;;;;;;8.92;86.80;100022.06;4999635;28;20026;-80
2022/05/29 03:52:49;;;;;;;2.45;1.70;;;;;;;9.02;86.03;100032.16;5020447;28;20438;-80
2022/05/29 03:55:16;;;;;;;4.03;1.52;;;;;;;8.97;86.79;100024.28;5019572;28;20040;-81
2022/05/29 03:57:42;;;;;;;4.13;1.67;;;;;;;9.00;86.56;100022.53;5016706;28;20387;-82
2022/05/29 04:00:09;;;;;;;3.00;1.63;;;;;;;9.16;85.53;100030.72;5015307;28;20482;-80
2022/05/29 04:02:35;;;;;;;3.72;1.58;;;;;;;9.24;85.88;100039.69;5014045;28;20054;-79
2022/05/29 04:05:00;;;;;;;2.80;1.70;;;;;;;9.30;85.68;100032.09;5013992;28;20127;-79
2022/05/29 04:12:55;;;;;;;2.05;1.55;;;;;;;9.44;85.27;100029.38;5014556;28;20048;-80
2022/05/29 04:15:20;;;;;;;2.85;1.65;;;;;;;9.49;84.82;100031.56;5014429;28;20029;-80
2022/05/29 04:17:45;;;;;;;6.13;1.45;;;;;;;9.49;84.71;100017.38;5013829;28;20034;-79
2022/05/29 04:20:11;;;;;;;4.28;2.38;;;;;;;9.55;84.99;100020.34;5014378;28;20037;-80
2022/05/29 04:22:36;;;;;;;2.92;1.30;;;;;;;9.64;84.24;100013.84;5014930;28;20164;-80
2022/05/29 04:25:02;;;;;;;6.45;1.63;;;;;;;9.74;84.12;100009.69;5014335;28;20033;-81
2022/05/29 04:27:27;;;;;;;2.53;1.52;;;;;;;9.69;83.29;99996.13;5014197;28;20076;-80
2022/05/29 04:29:52;;;;;;;2.33;1.52;;;;;;;9.95;83.66;100017.97;5016201;28;20045;-81
2022/05/29 04:35:02;;;;;;;4.65;1.60;;;;;;;10.19;82.58;100025.75;5023969;28;20053;-79
2022/05/29 04:37:30;;;;;;;4.03;1.55;;;;;;;10.26;82.37;100020.50;5023384;28;20025;-81
2022/05/29 04:39:57;;;;;;;2.03;1.40;;;;;;;10.35;80.89;100006.22;5026290;28;20057;-81
2022/05/29 04:42:24;;;;;;;1.85;1.27;;;;;;;10.42;80.60;100022.13;5009505;28;20044;-81
2022/05/29 04:44:50;;;;;;;4.22;1.20;;;;;;;10.41;78.25;100014.09;5020038;28;20029;-81
2022/05/29 04:47:15;;;;;;;2.72;1.45;;;;;;;10.57;78.68;100025.03;4996312;28;20385;-81
2022/05/29 04:49:43;;;;;;;5.65;1.65;;;;;;;10.63;79.58;100017.41;4995660;28;20036;-81
2022/05/29 04:52:10;;;;;;;5.57;1.35;;;;;;;10.79;78.78;100028.34;5012563;28;20030;-81
2022/05/29 04:54:37;;;;;;;3.40;1.30;;;;;;;10.76;77.53;100018.69;5016874;28;20030;-82
2022/05/29 04:57:06;;;;;;;3.72;1.13;;;;;;;10.81;77.07;100023.72;5004853;28;20041;-81
2022/05/29 04:59:34;;;;;;;4.40;1.50;;;;;;;10.86;77.47;100024.31;5002931;28;20030;-80
2022/05/29 05:02:00;;;;;;;2.25;1.67;;;;;;;11.03;76.71;100031.16;5048344;28;20381;-81
2022/05/29 05:04:27;;;;;;;1.63;1.13;;;;;;;11.09;76.13;100029.97;5009186;28;20172;-79
2022/05/29 05:06:55;;;;;;;3.08;1.30;;;;;;;11.14;75.17;100023.59;5019044;28;20029;-80
2022/05/29 05:09:23;;;;;;;2.67;2.10;;;;;;;11.25;75.00;100032.34;5002460;28;20543;-80
2022/05/29 05:11:58;;;;;;;4.60;1.25;;;;;;;11.29;75.22;100020.75;5002228;28;20461;-81
2022/05/29 05:14:26;;;;;;;2.25;1.23;;;;;;;11.40;74.86;100029.47;5036691;28;20048;-80
2022/05/29 05:16:56;;;;;;;4.15;1.73;;;;;;;11.50;74.17;100033.81;5034047;28;20037;-81
2022/05/29 05:19:23;;;;;;;5.03;1.52;;;;;;;11.58;73.68;100025.66;5019666;28;20037;-81
2022/05/29 05:21:50;;;;;;;4.50;1.42;;;;;;;11.57;72.85;100024.09;5002423;28;20371;-80
2022/05/29 05:24:16;;;;;;;1.60;1.10;;;;;;;11.56;73.12;100031.06;5018856;28;20390;-80
2022/05/29 05:26:42;;;;;;;5.57;1.45;;;;;;;11.60;73.53;100023.88;5018762;28;20034;-80
2022/05/29 05:29:08;;;;;;;1.98;1.13;;;;;;;11.72;72.58;100030.56;5002580;28;20087;-80
2022/05/29 05:31:35;;;;;;;6.20;1.65;;;;;;;11.71;71.29;100023.28;5018387;28;20429;-80
2022/05/29 05:34:02;;;;;;;3.13;1.15;;;;;;;11.90;72.05;100029.56;5019737;28;20033;-80
2022/05/29 05:36:29;;;;;;;1.60;0.95;;;;;;;11.95;71.85;100023.94;5019425;28;20470;-80
2022/05/29 05:38:55;;;;;;;6.32;1.88;;;;;;;12.10;70.30;100021.84;5020596;28;20029;-82
2022/05/29 05:41:23;;;;;;;2.15;1.20;;;;;;;12.09;70.49;100003.13;5036410;28;20026;-82
2022/05/29 05:43:49;;;;;;;2.92;0.90;;;;;;;12.29;69.04;100015.88;5018191;28;20040;-83
2022/05/29 05:46:16;;;;;;;1.40;1.30;;;;;;;12.40;69.23;100027.44;5036116;28;20026;-84
2022/05/29 05:48:43;;;;;;;4.30;1.13;;;;;;;12.51;69.65;100030.47;5001664;28;20029;-84
2022/05/29 05:51:11;;;;;;;2.00;1.15;;;;;;;12.60;68.45;100035.25;5035083;28;20056;-83
2022/05/29 05:53:38;;;;;;;2.97;1.05;;;;;;;12.78;68.11;100030.03;5018709;28;20025;-84
2022/05/29 05:59:07;;;;;;;3.47;1.35;;;;;;;15.92;60.92;100032.22;5016224;28;20049;-84
2022/05/29 06:01:33;;;;;;;2.47;1.25;;;;;;;17.55;51.96;100028.22;4999949;28;20406;-83
2022/05/29 06:04:00;;;;;;;5.10;0.80;;;;;;;18.74;46.48;100016.66;5032523;28;20041;-85
2022/05/29 06:06:26;;;;;;;4.78;1.98;;;;;;;18.95;44.67;100020.56;5014605;28;20037;-86
2022/05/29 06:08:52;;;;;;;1.98;1.08;;;;;;;19.15;43.50;100027.13;5014886;28;20044;-85
2022/05/29 06:11:33;;;;;;;1.67;0.90;;;;;;;19.77;44.72;100028.59;5016013;28;20395;-86
2022/05/29 06:13:59;;;;;;;2.25;0.70;;;;;;;20.48;40.67;100022.09;5015975;28;20056;-80
2022/05/29 06:16:25;;;;;;;2.65;1.13;;;;;;;21.25;36.70;100033.44;4999277;28;20057;-82
2022/05/29 06:18:51;;;;;;;4.50;1.52;;;;;;;22.41;34.22;100017.41;5014413;28;20022;-80
2022/05/29 06:21:17;;;;;;;2.47;0.80;;;;;;;23.57;33.92;100016.13;5015232;28;20040;-80
2022/05/29 06:23:43;;;;;;;5.55;1.35;;;;;;;24.65;31.92;100024.34;5016846;28;20128;-79
2022/05/29 06:26:12;;;;;;;5.00;0.98;;;;;;;25.72;31.58;100013.88;5017502;28;20030;-82
2022/05/29 06:28:46;;;;;;;2.30;0.80;;;;;;;26.16;27.98;100027.97;5014805;28;20506;-81
2022/05/29 06:31:20;;;;;;;1.73;0.80;;;;;;;26.97;26.54;100035.06;4997725;28;20382;-81
2022/05/29 06:33:47;;;;;;;2.60;0.88;;;;;;;27.26;25.57;100018.53;5015349;28;20029;-80
2022/05/29 06:36:25;;;;;;;1.23;0.73;;;;;;;27.85;24.81;100015.41;5018474;28;20033;-85
2022/05/29 06:38:54;;;;;;;5.18;0.93;;;;;;;28.52;24.49;100025.88;5015409;28;20041;-89
2022/05/29 06:41:22;;;;;;;2.55;0.90;;;;;;;29.51;24.08;100024.75;5016516;28;20037;-86
2022/05/29 06:43:52;;;;;;;2.50;1.35;;;;;;;29.95;21.46;100022.19;5016880;28;20136;-84
2022/05/29 06:46:22;;;;;;;2.28;1.30;;;;;;;29.85;21.32;100017.75;5017195;28;20026;-85
2022/05/29 06:48:52;;;;;;;3.45;0.82;;;;;;;30.84;22.15;100019.75;5012831;28;20022;-84
2022/05/29 06:51:21;;;;;;;2.17;0.80;;;;;;;31.62;21.40;100014.81;5009602;28;20497;-84
2022/05/29 06:53:50;;;;;;;2.42;0.80;;;;;;;32.28;20.27;100017.63;5029840;28;20087;-89
2022/05/29 06:56:24;;;;;;;3.60;0.90;;;;;;;32.34;18.93;100011.34;5013682;28;20041;-89
2022/05/29 06:58:50;;;;;;;4.43;1.13;;;;;;;32.73;20.50;100015.31;5030638;28;20053;-87
2022/05/29 07:07:00;;;;;;;5.43;1.10;;;;;;;32.70;19.83;100018.78;5005866;28;20094;-83
2022/05/29 07:09:31;;;;;;;2.20;0.65;;;;;;;32.64;19.03;100007.38;4981422;28;20044;-85
2022/05/29 07:12:02;;;;;;;;;;;;;;;32.96;17.45;100005.63;4997356;28;20147;-83
2022/05/29 07:14:39;;;;;;;3.13;1.17;;;;;;;33.22;19.79;100015.34;4997034;28;19909;-85
2022/05/29 07:17:06;;;;;;;5.25;1.05;;;;;;;34.00;18.50;100006.59;5014356;28;20072;-87
2022/05/29 07:19:34;;;;;;;2.72;0.95;;;;;;;34.55;18.06;100011.19;4996801;28;20021;-86
2022/05/29 07:22:01;;;;;;;1.80;0.85;;;;;;;34.74;16.23;100004.06;5006503;28;20045;-88
2022/05/29 07:24:30;;;;;;;1.65;0.77;;;;;;;34.80;16.09;100007.38;5013018;28;20041;-86
2022/05/29 07:26:56;;;;;;;1.63;0.60;;;;;;;34.45;16.81;99995.84;4996585;28;20037;-84
2022/05/29 07:29:24;;;;;;;1.25;0.80;;;;;;;34.79;18.03;100002.88;5015234;28;20029;-82
2022/05/29 07:31:51;;;;;;;1.38;0.70;;;;;;;35.33;15.93;100004.19;4996708;28;20029;-87
2022/05/29 07:34:18;;;;;;;3.55;1.75;;;;;;;34.78;15.51;100003.53;5013786;28;20032;-90
2022/05/29 07:36:45;;;;;;;2.10;0.60;;;;;;;34.55;17.09;100001.53;5013110;28;20048;-85
2022/05/29 07:39:11;;;;;;;2.08;0.80;;;;;;;34.40;16.15;100002.19;5034209;28;20072;-85
2022/05/29 07:44:23;;;;;;;2.47;1.10;;;;;;;33.65;17.50;99997.94;5013181;28;20041;-85
2022/05/29 07:46:50;;;;;;;3.15;0.80;;;;;;;33.76;17.07;99994.94;5012727;28;20031;-85
2022/05/29 07:49:17;;;;;;;4.90;1.08;;;;;;;34.31;15.52;100000.22;5014148;28;20233;-80
2022/05/29 07:51:44;;;;;;;2.40;0.77;;;;;;;34.28;16.21;100001.53;5013794;28;20029;-82
2022/05/29 07:54:10;;;;;;;6.45;0.70;;;;;;;34.34;17.13;99998.91;4980043;28;20022;-82
2022/05/29 07:56:37;;;;;;;2.58;0.80;;;;;;;34.78;16.90;99989.50;5013191;28;20032;-82
2022/05/29 07:59:03;;;;;;;1.08;0.40;;;;;;;35.32;16.40;100003.47;5013415;28;20606;-79
2022/05/29 08:01:29;;;;;;;2.28;0.80;;;;;;;35.25;15.40;100000.84;5012212;28;20053;-84
2022/05/29 08:04:03;;;;;;;3.17;0.95;;;;;;;34.41;15.99;99989.72;5014787;28;20466;-86
2022/05/29 08:06:28;;;;;;;2.67;0.75;;;;;;;33.28;16.63;99989.13;5014145;28;20466;-83
2022/05/29 08:08:55;;;;;;;2.22;0.60;;;;;;;33.13;16.80;99986.72;4997645;28;20042;-84
2022/05/29 08:11:21;;;;;;;2.08;0.75;;;;;;;33.19;16.88;99987.88;5014799;28;20080;-89
2022/05/29 08:13:47;;;;;;;0.98;0.60;;;;;;;31.85;17.16;99981.69;4996227;28;20029;-86
2022/05/29 08:16:16;;;;;;;2.60;0.65;;;;;;;30.67;18.24;99993.56;4996145;28;20393;-82
2022/05/29 08:18:43;;;;;;;1.85;0.90;;;;;;;30.06;18.96;99993.56;5013683;28;20029;-82
2022/05/29 08:21:16;;;;;;;1.67;0.57;;;;;;;29.50;20.20;99991.69;5013911;28;20057;-82
2022/05/29 08:30:37;;;;;;;0.90;0.50;;;;;;;29.27;20.53;99973.78;4981280;28;20058;-81
2022/05/29 08:31:58;;;;;;;1.75;0.60;;;;;;;31.46;18.92;99960.69;5019093;28;20125;-82
2022/05/29 08:34:24;;;;;;;2.22;0.60;;;;;;;31.27;17.80;99978.56;5001339;28;20453;-85
2022/05/29 08:36:49;;;;;;;1.88;0.55;;;;;;;30.50;18.32;99961.47;4982852;28;20117;-83
2022/05/29 08:39:15;;;;;;;2.15;0.73;;;;;;;30.09;18.84;99972.53;5016026;28;20022;-84
2022/05/29 08:41:45;;;;;;;1.95;0.60;;;;;;;30.41;20.68;99962.28;5016185;28;20099;-83
2022/05/29 08:44:15;;;;;;;1.70;0.60;;;;;;;31.42;18.76;99981.03;5016039;28;20033;-86
2022/05/29 08:46:43;;;;;;;1.17;0.60;;;;;;;31.52;17.18;99975.06;5016003;28;20049;-85
2022/05/29 08:49:11;;;;;;;1.52;0.47;;;;;;;30.15;17.97;99957.47;4983137;28;20026;-81
2022/05/29 08:51:55;;;;;;;2.05;0.60;;;;;;;29.95;19.78;99972.25;5016987;28;20038;-82
2022/05/29 08:54:42;;;;;;;1.00;0.50;;;;;;;29.99;19.71;99980.63;5000179;28;20037;-84
2022/05/29 08:57:13;;;;;;;2.72;0.45;;;;;;;29.39;19.52;99973.94;4999576;28;20034;-85
2022/05/29 09:00:20;;;;;;;1.83;0.63;;;;;;;28.99;21.41;99977.50;5016827;28;20068;-85
2022/05/29 09:03:36;;;;;;;0.65;0.52;;;;;;;28.79;22.97;99970.09;4975170;28;20048;-87
2022/05/29 09:06:11;;;;;;;1.27;0.60;;;;;;;28.76;20.20;99969.19;4989113;28;20044;-85
2022/05/29 09:08:51;;;;;;;3.33;0.60;;;;;;;28.47;21.12;99963.22;5015763;28;20109;-83
2022/05/29 09:12:05;;;;;;;3.60;0.85;;;;;;;28.76;22.42;99960.38;4999216;28;20041;-79
2022/05/29 09:14:50;;;;;;;0.82;0.82;;;;;;;28.62;20.54;99962.16;5017717;28;20030;-76
2022/05/29 09:17:19;;;;;;;3.17;0.70;;;;;;;28.51;21.71;99960.63;5016778;28;20030;-79
2022/05/29 09:19:50;;;;;;;1.77;0.40;;;;;;;28.37;21.52;99958.75;5016502;28;20036;-78
2022/05/29 09:22:22;;;;;;;0.77;0.60;;;;;;;28.07;20.76;99960.78;5015336;28;20029;-79
2022/05/29 09:25:32;;;;;;;2.33;0.50;;;;;;;28.46;20.95;99955.06;4981512;28;20320;-76
2022/05/29 09:28:07;;;;;;;2.42;0.55;;;;;;;28.63;21.53;99946.13;4987410;28;20065;-78
2022/05/29 09:30:38;;;;;;;1.67;0.63;;;;;;;28.39;21.25;99953.81;5016349;28;20034;-78
2022/05/29 09:33:25;;;;;;;2.20;0.67;;;;;;;28.36;20.92;99924.97;4998597;28;20073;-79
2022/05/29 09:36:25;;;;;;;2.85;0.55;;;;;;;29.15;21.41;99938.44;4981844;28;20367;-79
2022/05/29 09:39:13;;;;;;;0.90;0.60;;;;;;;29.53;19.54;99940.53;5013533;28;20111;-80
2022/05/29 09:41:48;;;;;;;2.80;0.75;;;;;;;29.19;20.59;99944.59;5015647;28;20128;-81
2022/05/29 09:44:19;;;;;;;1.92;0.60;;;;;;;28.85;20.35;99938.31;5016934;28;20025;-80
2022/05/29 09:46:50;;;;;;;2.72;0.68;;;;;;;28.56;20.82;99935.31;5017910;28;20031;-78
2022/05/29 09:52:12;;;;;;;2.10;0.85;;;;;;;27.71;21.27;99932.28;5001005;28;20057;-81
2022/05/29 09:54:43;;;;;;;0.90;0.47;;;;;;;26.74;22.33;99915.41;4998474;28;20397;-81
2022/05/29 09:57:29;;;;;;;1.98;0.63;;;;;;;26.17;22.99;99936.06;4982043;28;20405;-81
2022/05/29 10:00:24;;;;;;;2.20;0.85;;;;;;;25.63;23.68;99903.66;5015778;28;20100;-80
2022/05/29 10:02:49;;;;;;;1.05;0.60;;;;;;;25.84;25.24;99938.31;5012925;28;20034;-80
2022/05/29 10:05:27;;;;;;;1.08;0.55;;;;;;;26.24;24.88;99946.19;5016270;28;20060;-82
2022/05/29 10:07:55;;;;;;;2.08;0.50;;;;;;;26.48;23.64;99948.25;4998837;28;20074;-78
2022/05/29 10:10:26;;;;;;;3.75;0.60;;;;;;;26.43;23.26;99946.38;4998569;28;20100;-77
2022/05/29 10:12:53;;;;;;;;;;;;;;;26.10;24.22;99949.34;5015822;28;20393;-78
2022/05/29 10:15:24;;;;;;;1.92;0.60;;;;;;;25.36;24.20;99943.44;5015648;28;20353;-77
2022/05/29 10:17:50;;;;;;;3.25;0.90;;;;;;;24.91;29.09;99944.47;5015498;28;20041;-76
2022/05/29 10:20:26;;;;;;;1.30;0.57;;;;;;;24.54;26.58;99940.28;5016060;28;20022;-77
2022/05/29 10:22:55;;;;;;;3.58;0.85;;;;;;;24.73;28.29;99952.25;5015069;28;20474;-75
2022/05/29 10:25:24;;;;;;;1.35;0.70;;;;;;;24.99;26.54;99932.78;4998084;28;20038;-76
2022/05/29 10:27:52;;;;;;;1.73;0.70;;;;;;;25.15;26.79;99935.03;5015058;28;20053;-76
2022/05/29 10:30:54;;;;;;;1.73;0.55;;;;;;;25.25;25.41;99914.78;4997480;28;20382;-77
2022/05/29 10:33:25;;;;;;;1.40;0.82;;;;;;;25.04;24.10;99917.22;4993886;28;20052;-78
2022/05/29 10:35:55;;;;;;;1.33;0.85;;;;;;;24.80;25.57;99928.16;4998367;28;20025;-81
2022/05/29 10:38:22;;;;;;;0.93;0.83;;;;;;;24.65;30.32;99922.38;4982327;28;20474;-80
2022/05/29 10:40:50;;;;;;;0.88;0.55;;;;;;;24.67;28.61;99908.00;5015954;28;20474;-81
2022/05/29 10:43:44;;;;;;;0.60;0.52;;;;;;;24.00;28.32;99927.13;5016476;28;20033;-79
2022/05/29 10:46:25;;;;;;;2.58;0.63;;;;;;;23.34;27.49;99927.22;4983140;28;20025;-80
2022/05/29 10:49:10;;;;;;;2.90;0.60;;;;;;;23.27;26.85;99928.00;4998639;28;20026;-79
2022/05/29 10:51:56;;;;;;;2.20;0.50;;;;;;;23.34;29.74;99924.31;5014717;28;20053;-79
2022/05/29 10:54:59;;;;;;;2.30;0.90;;;;;;;23.64;31.02;99915.69;4982082;28;20026;-80
2022/05/29 10:57:52;;;;;;;1.02;0.70;;;;;;;23.72;28.65;99913.56;5014929;28;20025;-80
2022/05/29 11:03:17;;;;;;;2.13;0.50;;;;;;;23.98;26.63;99918.19;4996995;28;20018;-78
2022/05/29 11:04:04;;;;;;;2.78;0.50;;;;;;;24.28;26.09;99908.69;4973632;28;20041;-80
2022/05/29 11:06:48;;;;;;;1.35;0.50;;;;;;;24.43;25.84;99909.44;4997195;28;20022;-80
2022/05/29 11:09:51;;;;;;;2.10;0.70;;;;;;;24.36;25.26;99900.72;4997438;28;20552;-80
2022/05/29 11:12:50;;;;;;;2.65;0.63;;;;;;;24.08;25.86;99902.47;5014708;28;20060;-79
2022/05/29 11:15:31;;;;;;;1.95;0.75;;;;;;;23.87;26.10;99912.78;4997796;28;20018;-79
2022/05/29 11:18:20;;;;;;;3.15;0.77;;;;;;;23.89;26.90;99905.03;4996998;28;20041;-79
2022/05/29 11:21:24;;;;;;;1.73;0.80;;;;;;;24.04;28.34;99884.63;4997498;28;20037;-81
2022/05/29 11:24:07;;;;;;;1.65;0.75;;;;;;;24.09;25.62;99891.63;4973924;28;20076;-79
2022/05/29 11:26:47;;;;;;;1.63;0.80;;;;;;;24.18;25.78;99870.66;4996565;28;20553;-81
2022/05/29 11:29:26;;;;;;;1.90;0.80;;;;;;;24.09;30.27;99882.88;5014371;28;20117;-80
2022/05/29 11:32:17;;;;;;;1.23;0.70;;;;;;;23.61;29.70;99887.78;4996245;28;20295;-78
2022/05/29 11:35:01;;;;;;;;;;;;;;;23.97;29.40;99873.03;4977102;28;20042;-80
2022/05/29 11:37:39;;;;;;;3.17;0.70;;;;;;;24.38;26.64;99880.53;5014797;28;20333;-79
2022/05/29 11:40:19;;;;;;;2.28;0.75;;;;;;;24.77;26.64;99870.28;5004428;28;20057;-78
2022/05/29 11:42:51;;;;;;;0.82;0.52;;;;;;;24.69;24.65;99866.63;5028292;28;20040;-78
2022/05/29 11:45:25;;;;;;;0.57;0.52;;;;;;;24.63;24.79;99857.31;5025631;28;20037;-78
2022/05/29 11:51:08;;;;;;;1.55;0.65;;;;;;;24.14;26.04;99864.44;5006427;28;20108;-78
2022/05/29 11:53:49;;;;;;;2.65;1.80;;;;;;;24.02;24.41;99843.72;5005067;28;20470;-79
2022/05/29 11:56:17;;;;;;;;;;;;;;;23.98;26.30;99857.09;5022795;28;20030;-79
2022/05/29 11:59:04;;;;;;;2.45;0.50;;;;;;;24.19;25.03;99863.50;5025857;28;19909;-79
2022/05/29 12:01:53;;;;;;;2.17;0.70;;;;;;;24.01;24.93;99853.03;5014239;28;20030;-78
2022/05/29 12:04:35;;;;;;;1.75;0.80;;;;;;;23.79;26.46;99845.09;5009525;28;20045;-77
2022/05/29 12:07:08;;;;;;;2.60;1.30;;;;;;;23.21;26.16;99844.69;5002463;28;20072;-78
2022/05/29 12:09:43;;;;;;;2.15;1.00;;;;;;;23.30;27.81;99833.81;5007241;28;20215;-78
2022/05/29 12:12:15;;;;;;;2.42;1.70;;;;;;;23.36;31.01;99843.91;5023207;28;20468;-79
2022/05/29 12:14:45;;;;;;;2.50;0.70;;;;;;;23.22;27.27;99852.03;5007153;28;20021;-78
2022/05/29 12:17:31;;;;;;;1.73;0.60;;;;;;;23.38;29.98;99849.16;5007120;28;20057;-79
2022/05/29 12:20:10;;;;;;;2.20;0.80;;;;;;;23.44;27.67;99852.63;5021976;28;20359;-78
2022/05/29 12:22:47;;;;;;;1.58;0.73;;;;;;;23.36;26.95;99849.72;4988231;28;20022;-78
2022/05/29 12:25:37;;;;;;;1.75;0.60;;;;;;;23.32;25.12;99848.56;5010375;28;20081;-80
2022/05/29 12:28:06;;;;;;;1.73;0.60;;;;;;;23.19;26.59;99852.41;4989871;28;20022;-79
2022/05/29 12:30:41;;;;;;;2.25;0.80;;;;;;;22.89;29.51;99850.25;5002728;28;20030;-80
2022/05/29 12:33:15;;;;;;;1.73;0.68;;;;;;;22.46;27.07;99861.81;5000010;28;20057;-80
2022/05/29 12:35:59;;;;;;;2.00;0.60;;;;;;;22.84;27.29;99862.81;5017589;28;20501;-80
2022/05/29 12:39:05;;;;;;;1.55;1.15;;;;;;;23.13;26.61;99846.81;4999998;28;20109;-79
2022/05/29 12:41:59;;;;;;;2.10;0.63;;;;;;;23.51;25.62;99849.78;5017795;28;20451;-80
2022/05/29 12:44:43;;;;;;;2.85;0.73;;;;;;;23.54;25.29;99856.53;4999736;28;20037;-79